Tiempo atmosférico en la estación meteorológica de Alberca de Zancara, Cuenca (805 m.)



Fecha
DESCASC
Temp. máxima en grados centígrados (hora)
DESCASC
Temp. mínima en grados centígrados (hora)
DESCASC
Temp. media en grados centígrados
DESCASC
Racha de viento máxima en m/sg (hora)
DESCASC
Velocidad máxima media en intervalos de 10 minutos(hora)
DESCASC
Precipitaciones diarias en mm
DESCASC
Precipitaciones de 00:00 a 06:00 en mm
DESCASC
Precipitaciones de 06:00 a 12:00 en mm
DESCASC
Precipitaciones de 12:00 a 18:00 en mm
DESCASC
Precipitaciones de 18:00 a 24:00 en mm
DESCASC
16-01-2020 13.9 (15:20) 0.5 (08:40) 7.2 6.67 (16:30) 4.44 (14:30) 0 0 0 0 0
15-01-2020 11.9 (14:20) -2.2 (08:20) 4.8 9.17 (14:00) 6.11 (14:30) 0 0 0 0 0
14-01-2020 9.2 (15:00) -5.2 (08:50) 2 7.5 (15:20) 4.17 (14:00) 0 0 0 0 0
13-01-2020 8.6 (14:50) -5.7 (07:40) 1.5 6.39 (15:40) 4.17 (14:30) 0 0 0 0 0
12-01-2020 11.3 (15:50) -3.4 (-00:0) 4 6.39 (15:00) 4.17 (14:40) 0 0 0 0 0
11-01-2020 11.5 (16:10) -2.6 (-00:0) 4.5 5.83 (00:40) 3.89 (01:00) 0 0 0 0 0
10-01-2020 11 (14:40) 0.1 (00:00) 5.6 10 (13:20) 5 (11:50) 0 0 0 0 0
09-01-2020 10.3 (16:10) 0.6 (00:00) 5.5 5 (17:00) 3.61 (22:10) 0 0 0 0 0
08-01-2020 14.1 (15:00) -1.3 (-00:0) 6.4 6.67 (15:50) 3.06 (15:40) 0 0 0 0 0
07-01-2020 14.4 (16:40) -2.1 (-00:0) 6.1 5 (16:00) 3.33 (16:00) 0 0 0 0 0
06-01-2020 13.9 (14:30) -0.8 (-00:0) 6.5 3.89 (08:40) 2.5 (06:20) 0 0 0 0 0
05-01-2020 14.6 (16:10) -2.4 (-00:0) 6.1 3.06 (12:10) 1.67 (04:00) 0 0 0 0 0
04-01-2020 12.5 (16:10) -2 (-00:0) 5.3 4.72 (14:10) 2.22 (12:30) 0 0 0 0 0
03-01-2020 9.6 (13:30) -2.8 (-00:0) 3.4 5.83 (14:20) 3.89 (13:40) 0 0 0 0 0
02-01-2020 13.7 (15:00) -3.3 (-00:0) 5.2 3.61 (20:30) 2.78 (20:30) 0.2 0 0.2 0 0
01-01-2020 10.4 (16:10) -3 (-00:0) 3.7 3.33 (15:20) 1.94 (13:40) 0 0 0 0 0
31-12-2019 12 (16:30) -1.1 (-00:0) 5.4 4.72 (12:20) 2.5 (12:20) 0.2 0 0.2 0 0
30-12-2019 -- (--) -- (--) -- -- (--) -- (--) -- 0 0 -- 0
29-12-2019 9.6 (16:10) -0.2 (00:00) 4.7 4.72 (12:50) 2.5 (06:10) 0 0 0 0 0
28-12-2019 17.6 (16:20) -0.5 (-00:0) 8.6 3.06 (01:20) 1.67 (11:10) 0 0 0 0 0
27-12-2019 15.7 (15:40) 3 (00:00) 9.3 5.83 (11:40) 3.33 (11:30) 0 0 0 0 0
26-12-2019 16.6 (16:20) 3.8 (00:00) 10.2 3.89 (14:00) 2.5 (17:00) 0 0 0 0 0
25-12-2019 16.9 (15:00) 2 (00:00) 9.4 3.61 (16:20) 2.5 (18:30) 0 0 0 0 0
24-12-2019 16.8 (14:30) 2 (00:00) 9.4 2.78 (23:20) 1.94 (23:50) 0 0 0 0 0
23-12-2019 12.5 (16:10) 4 (00:00) 8.3 9.44 (01:20) 6.39 (00:30) 0 0 0 0 0
22-12-2019 12.1 (14:10) 7.5 (00:00) 9.8 17.78 (00:20) 12.5 (00:10) 0 0 0 0 0
21-12-2019 13.7 (12:00) 9.7 (00:00) 11.7 20.56 (20:30) 14.17 (20:30) 8 4.4 0.4 3.2 0
20-12-2019 13 (19:10) 11.6 (00:00) 12.3 19.72 (22:30) 12.78 (19:30) 8.8 0.4 3.6 2 2.8

Gráficas

Temp. máximas Temp. mínimas Temp. medias Precipitaciones Rachas de viento máximas Velocidades máximas media en intervalos de 10 minutos

Datos horarios

Fecha y hora oficial Temperatura (ºC) Velocidad del viento (km/h) Dirección del viento Racha (km/h) Dirección de racha Precipitación (mm) Presión (hPa) Tendencia (hPa) Humedad (%)
2020-01-18 23:00:00 8.4 18 Oeste 33 Oeste 0 -- -- 99
2020-01-18 22:00:00 8.5 22 Oeste 39 Oeste 0 -- -- 97
2020-01-18 21:00:00 8.3 16 Oeste 33 Sudoeste 0 -- -- 98
2020-01-18 20:00:00 7.9 15 Sudoeste 30 Sudoeste 0.2 -- -- 99
2020-01-18 19:00:00 7.8 14 Oeste 31 Sudoeste 0 -- -- 98
2020-01-18 18:00:00 8 18 Sudoeste 35 Oeste 0 -- -- 95
2020-01-18 17:00:00 8.5 17 Oeste 34 Oeste 0 -- -- 91
2020-01-18 16:00:00 8.6 22 Oeste 39 Oeste 0 -- -- 89
2020-01-18 15:00:00 8.9 27 Oeste 39 Oeste 0 -- -- 88
2020-01-18 14:00:00 9 20 Oeste 31 Oeste 0 -- -- 87
2020-01-18 13:00:00 8.3 10 Sudoeste 19 Sudoeste 0 -- -- 91
2020-01-18 12:00:00 7 4 Sur 8 Sur 0.2 -- -- 93
2020-01-18 11:00:00 5.6 6 Sur 10 Sudoeste 0 -- -- 93
2020-01-18 10:00:00 4.7 0 Calma 3 Sudeste 0 -- -- 96
2020-01-18 09:00:00 4.4 2 Este 4 Este 1.2 -- -- 96
2020-01-18 08:00:00 4.2 0 Calma 5 Nordeste 0 -- -- 93
2020-01-18 07:00:00 4.2 0 Calma 13 Nordeste 0 -- -- 94
2020-01-18 06:00:00 3.8 3 Nordeste 5 Nordeste 0 -- -- 94
2020-01-18 05:00:00 3.4 0 Calma 4 Noroeste 0 -- -- 95
2020-01-18 04:00:00 3.1 0 Calma 8 Norte 0 -- -- 93
2020-01-18 03:00:00 3.5 3 Nordeste 6 Este 0 -- -- 91
2020-01-18 02:00:00 3.7 2 Sudeste 4 Sudeste 0 -- -- 91
2020-01-18 01:00:00 4 0 Calma 10 Oeste 0 -- -- 88
2020-01-18 00:00:00 4.5 0 Calma 10 Noroeste 0 -- -- 87
2020-01-17 23:00:00 5.1 7 Norte 11 Norte 0 -- -- 84
2020-01-17 22:00:00 5.7 4 Norte 13 Norte 0 -- -- 81
2020-01-17 21:00:00 5.5 7 Norte 13 Norte 0 -- -- 81
2020-01-17 20:00:00 5.8 3 Norte 11 Norte 0 -- -- 80
2020-01-17 19:00:00 7.1 3 Nordeste 13 Oeste 0 -- -- 77
2020-01-17 18:00:00 9.4 7 Noroeste 28 Noroeste 0 -- -- 68
2020-01-17 17:00:00 10.9 18 Noroeste 32 Noroeste 0 -- -- 62
2020-01-17 16:00:00 11.5 20 Noroeste 34 Oeste 0 -- -- 61
2020-01-17 15:00:00 11.1 24 Oeste 35 Noroeste 0 -- -- 59
2020-01-17 14:00:00 10.9 25 Oeste 43 Oeste 0 -- -- 62
2020-01-17 13:00:00 10.5 27 Oeste 39 Oeste 0 -- -- 64
2020-01-17 12:00:00 9.2 25 Oeste 40 Oeste 0 -- -- 77
2020-01-17 11:00:00 7.8 18 Oeste 26 Oeste 0 -- -- 78
2020-01-17 10:00:00 5.7 12 Oeste 18 Oeste 0 -- -- 77
2020-01-17 09:00:00 5 11 Oeste 24 Oeste 0 -- -- 76
2020-01-17 08:00:00 4.5 15 Oeste 26 Oeste 0 -- -- 71
2020-01-17 07:00:00 4.7 17 Oeste 28 Oeste 0 -- -- 69
2020-01-17 06:00:00 4.6 9 Oeste 22 Oeste 0 -- -- 71
2020-01-17 05:00:00 3.7 12 Oeste 22 Oeste 0 -- -- 71
2020-01-17 04:00:00 4.7 13 Oeste 21 Oeste 0 -- -- 68
2020-01-17 03:00:00 4.6 12 Oeste 19 Oeste 0 -- -- 67
2020-01-17 02:00:00 5.3 8 Oeste 21 Sudoeste 0 -- -- 67
2020-01-17 01:00:00 4.6 7 Oeste 12 Oeste 0 -- -- 66
2020-01-17 00:00:00 4.5 8 Oeste 12 Oeste 0 -- -- 68
2020-01-16 23:00:00 3.7 0 Calma 5 Sudoeste 0 -- -- 75
2020-01-16 22:00:00 4 3 Oeste 6 Oeste 0 -- -- 73
2020-01-16 21:00:00 4.6 3 Sudoeste 12 Sur 0 -- -- 72
2020-01-16 20:00:00 6.4 0 Calma 9 Noroeste 0 -- -- 64
2020-01-16 19:00:00 7.5 6 Noroeste 12 Oeste 0 -- -- 61
2020-01-16 18:00:00 11.1 9 Oeste 24 Oeste 0 -- -- 48
2020-01-16 17:00:00 13.4 15 Oeste 24 Oeste 0 -- -- 40
2020-01-16 16:00:00 13.7 13 Oeste 22 Sudoeste 0 -- -- 45
2020-01-16 15:00:00 13.7 12 Oeste 24 Oeste 0 -- -- 50
2020-01-16 14:00:00 13.4 12 Oeste 17 Oeste 0 -- -- 56
2020-01-16 13:00:00 12.5 6 Sudoeste 12 Oeste 0 -- -- 57
2020-01-16 12:00:00 10.7 5 Sudoeste 8 Sudoeste 0 -- -- 64
2020-01-16 11:00:00 7.1 2 Este 9 Este 0 -- -- 77
2020-01-16 10:00:00 3.3 3 Nordeste 8 Este 0 -- -- 95
2020-01-16 09:00:00 0.8 2 Nordeste 6 Este 0 -- -- 98
2020-01-16 08:00:00 1 0 Calma 5 Norte 0 -- -- 97
2020-01-16 07:00:00 1.2 0 Calma 4 Nordeste 0 -- -- 96
2020-01-16 06:00:00 1.1 2 Nordeste 5 Nordeste 0 -- -- 94
2020-01-16 05:00:00 2.8 0 Calma 4 Norte 0 -- -- 91
2020-01-16 04:00:00 4.8 2 Este 5 Este 0 -- -- 89
2020-01-16 03:00:00 4.7 0 Calma 4 Sudoeste 0 -- -- 89
2020-01-16 02:00:00 5.6 0 Calma 3 Sur 0 -- -- 88
2020-01-16 01:00:00 6.6 0 Calma 2 Sudoeste 0 -- -- 83
2020-01-16 00:00:00 7.5 3 Sudoeste 9 Sur 0 -- -- 79
2020-01-15 23:00:00 8.4 4 Noroeste 9 Noroeste 0 -- -- 78
2020-01-15 22:00:00 8.5 7 Noroeste 12 Noroeste 0 -- -- 77
2020-01-15 21:00:00 8.2 5 Oeste 9 Noroeste 0 -- -- 76
2020-01-15 20:00:00 8.2 6 Oeste 8 Oeste 0 -- -- 74
2020-01-15 19:00:00 8.4 3 Noroeste 9 Oeste 0 -- -- 72
2020-01-15 18:00:00 9.1 3 Oeste 15 Oeste 0 -- -- 68
2020-01-15 17:00:00 11 10 Oeste 25 Oeste 0 -- -- 61
2020-01-15 16:00:00 11.9 13 Oeste 29 Oeste 0 -- -- 58
2020-01-15 15:00:00 11.8 19 Oeste 32 Oeste 0 -- -- 57
2020-01-15 14:00:00 11.3 21 Oeste 33 Oeste 0 -- -- 55
2020-01-15 13:00:00 9.2 13 Oeste 24 Oeste 0 -- -- 67
2020-01-15 12:00:00 7.6 8 Oeste 15 Noroeste 0 -- -- 73
2020-01-15 11:00:00 5.3 0 Calma 3 Sudeste 0 -- -- 84
2020-01-15 10:00:00 -0.2 0 Calma 2 Este 0 -- -- 98
2020-01-15 09:00:00 -1.4 0 Calma 7 Nordeste 0 -- -- 97
2020-01-15 08:00:00 -2 2 Nordeste 6 Nordeste 0 -- -- 96
2020-01-15 07:00:00 -1.3 0 Calma 4 Nordeste 0 -- -- 91
2020-01-15 06:00:00 0 0 Calma 3 Oeste 0 -- -- 92
2020-01-15 05:00:00 1.6 2 Noroeste 6 Oeste 0 -- -- 91
2020-01-15 04:00:00 1.7 4 Oeste 6 Oeste 0 -- -- 93
2020-01-15 03:00:00 0.7 3 Oeste 9 Oeste 0 -- -- 94
2020-01-15 02:00:00 0.9 6 Oeste 10 Oeste 0 -- -- 92
2020-01-15 01:00:00 0.8 7 Oeste 9 Oeste 0 -- -- 90
2020-01-15 00:00:00 1 2 Oeste 7 Noroeste 0 -- -- 87
2020-01-14 23:00:00 2.2 6 Oeste 11 Oeste 0 -- -- 84
2020-01-14 22:00:00 1.7 7 Oeste 9 Noroeste 0 -- -- 89
2020-01-14 21:00:00 1.8 0 Calma 9 Noroeste 0 -- -- 82
2020-01-14 20:00:00 3.4 6 Oeste 11 Oeste 0 -- -- 79
2020-01-14 19:00:00 4 6 Oeste 12 Oeste 0 -- -- 78
2020-01-14 18:00:00 6.2 8 Oeste 18 Oeste 0 -- -- 68
2020-01-14 17:00:00 8.7 11 Oeste 21 Oeste 0 -- -- 58
2020-01-14 16:00:00 9.1 14 Oeste 27 Oeste 0 -- -- 58
2020-01-14 15:00:00 9.2 12 Oeste 23 Noroeste 0 -- -- 60
2020-01-14 14:00:00 8.3 15 Oeste 26 Oeste 0 -- -- 64
2020-01-14 13:00:00 7.9 10 Oeste 21 Oeste 0 -- -- 67
2020-01-14 12:00:00 6.3 6 Oeste 10 Oeste 0 -- -- 66
2020-01-14 11:00:00 2.9 0 Calma 6 Nordeste 0 -- -- 83
2020-01-14 10:00:00 -2.4 0 Calma 3 Nordeste 0 -- -- 99
2020-01-14 09:00:00 -5.1 0 Calma 3 Este 0 -- -- 95
2020-01-14 08:00:00 -4.9 0 Calma 4 Nordeste 0 -- -- 95
2020-01-14 07:00:00 -5 0 Calma 2 Norte 0 -- -- 94
2020-01-14 06:00:00 -4.5 0 Calma 2 Norte 0 -- -- 92
2020-01-14 05:00:00 -3 2 Nordeste 5 Este 0 -- -- 92
2020-01-14 04:00:00 -2.7 3 Norte 6 Nordeste 0 -- -- 96
2020-01-14 03:00:00 -4 0 Calma 2 Noroeste 0 -- -- 92
2020-01-14 02:00:00 -2.8 0 Calma 6 Norte 0 -- -- 88
2020-01-14 01:00:00 -2 2 Norte 4 Norte 0 -- -- 92
2020-01-14 00:00:00 -1.4 0 Calma 3 Sudoeste 0 -- -- 91
2020-01-13 23:00:00 -1.1 0 Calma 2 Nordeste 0 -- -- 86
2020-01-13 22:00:00 0.6 0 Calma 6 Nordeste 0 -- -- 81
2020-01-13 21:00:00 1.7 5 Norte 9 Norte 0 -- -- 80
2020-01-13 20:00:00 3.4 4 Norte 7 Norte 0 -- -- 75
2020-01-13 19:00:00 2.9 3 Oeste 7 Oeste 0 -- -- 74
2020-01-13 18:00:00 6.3 5 Oeste 14 Oeste 0 -- -- 63
2020-01-13 17:00:00 8 12 Oeste 21 Oeste 0 -- -- 58
2020-01-13 16:00:00 8.1 13 Oeste 23 Oeste 0 -- -- 55
2020-01-13 15:00:00 8.5 13 Oeste 23 Oeste 0 -- -- 53
2020-01-13 14:00:00 8 13 Oeste 20 Oeste 0 -- -- 54
2020-01-13 13:00:00 6.9 9 Oeste 12 Oeste 0 -- -- 60
2020-01-13 12:00:00 5.6 4 Sudoeste 7 Sudoeste 0 -- -- 65
2020-01-13 11:00:00 3.6 0 Calma 4 Nordeste 0 -- -- 71
2020-01-13 10:00:00 -2.2 2 Nordeste 4 Nordeste 0 -- -- 91
2020-01-13 09:00:00 -5.1 0 Calma 8 Sur 0 -- -- 95
2020-01-13 08:00:00 -5.7 0 Calma 0 Calma 0 -- -- 93
2020-01-13 07:00:00 -5.3 0 Calma 3 Sudeste 0 -- -- 92
2020-01-13 06:00:00 -5.3 0 Calma 4 Nordeste 0 -- -- 89
2020-01-13 05:00:00 -5.1 0 Calma 2 Norte 0 -- -- 88
2020-01-13 04:00:00 -3.6 0 Calma 6 Norte 0 -- -- 87
2020-01-13 03:00:00 -4.6 0 Calma -- -- 0 -- -- 89
2020-01-13 02:00:00 -3.6 0 Calma 2 Este 0 -- -- 85
2020-01-13 01:00:00 -1.8 0 Calma 4 Norte 0 -- -- 81
2020-01-13 00:00:00 -1.7 2 Nordeste 4 Norte 0 -- -- 87
2020-01-12 23:00:00 -1.2 0 Calma 5 Este 0 -- -- 84
2020-01-12 22:00:00 -0.8 2 Este 4 Este 0 -- -- 81
2020-01-12 21:00:00 -0.8 0 Calma 0 Calma 0 -- -- 81
2020-01-12 20:00:00 0.9 0 Calma 2 Norte 0 -- -- 74
2020-01-12 19:00:00 4 0 Calma 9 Oeste 0 -- -- 66
2020-01-12 18:00:00 7.5 6 Oeste 14 Noroeste 0 -- -- 53
2020-01-12 17:00:00 10.5 10 Oeste 17 Noroeste 0 -- -- 44
2020-01-12 16:00:00 11.2 10 Noroeste 20 Oeste 0 -- -- 41
2020-01-12 15:00:00 11 11 Noroeste 23 Oeste 0 -- -- 40
2020-01-12 14:00:00 10.4 12 Noroeste 21 Oeste 0 -- -- 51
2020-01-12 13:00:00 9.6 8 Noroeste 18 Oeste 0 -- -- 52
2020-01-12 12:00:00 6.9 8 Oeste 13 Noroeste 0 -- -- 63
2020-01-12 11:00:00 5.4 6 Noroeste 11 Noroeste 0 -- -- 66
2020-01-12 10:00:00 0.1 0 Calma 4 Noroeste 0 -- -- 90
2020-01-12 09:00:00 -1.8 0 Calma 8 Norte 0 -- -- 86
2020-01-12 08:00:00 -1.4 2 Norte 10 Noroeste 0 -- -- 85
2020-01-12 07:00:00 -3 0 Calma 4 Norte 0 -- -- 94
2020-01-12 06:00:00 -2.3 0 Calma 3 Sudoeste 0 -- -- 91
2020-01-12 05:00:00 -1.5 0 Calma 5 Nordeste 0 -- -- 82
2020-01-12 04:00:00 0.4 3 Nordeste 6 Nordeste 0 -- -- 81
2020-01-12 03:00:00 1 3 Sudeste 9 Norte 0 -- -- 76
2020-01-12 02:00:00 1.4 6 Norte 10 Norte 0 -- -- 75
2020-01-12 01:00:00 1.7 6 Norte 12 Norte 0 -- -- 75
2020-01-12 00:00:00 2.2 8 Norte 11 Norte 0 -- -- 73
2020-01-11 23:00:00 2.6 5 Norte 14 Noroeste 0 -- -- 71
2020-01-11 22:00:00 3.1 7 Norte 13 Norte 0 -- -- 69
2020-01-11 21:00:00 3.2 7 Norte 11 Norte 0 -- -- 68
2020-01-11 20:00:00 4.5 4 Norte 10 Noroeste 0 -- -- 64
2020-01-11 19:00:00 5.8 4 Norte 13 Oeste 0 -- -- 63
2020-01-11 18:00:00 8 10 Oeste 16 Oeste 0 -- -- 59
2020-01-11 17:00:00 10.5 9 Oeste 18 Sudoeste 0 -- -- 53
2020-01-11 16:00:00 11.4 5 Oeste 14 Noroeste 0 -- -- 47
2020-01-11 15:00:00 11.3 3 Oeste 11 Oeste 0 -- -- 54
2020-01-11 14:00:00 10.3 5 Sudoeste 12 Oeste 0 -- -- 56
2020-01-11 13:00:00 8.6 5 Sudoeste 9 Sudoeste 0 -- -- 60
2020-01-11 12:00:00 7.3 4 Sudoeste 8 Oeste 0 -- -- 64
2020-01-11 11:00:00 5.2 0 Calma 4 Sudoeste 0 -- -- 70
2020-01-11 10:00:00 1.4 2 Norte 8 Nordeste 0 -- -- 82
2020-01-11 09:00:00 -1.3 2 Nordeste 6 Norte 0 -- -- 89
2020-01-11 08:00:00 -2.1 0 Calma 3 Sur 0 -- -- 88
2020-01-11 07:00:00 -0.6 0 Calma 6 Nordeste 0 -- -- 85
2020-01-11 06:00:00 -0.4 2 Nordeste 8 Nordeste 0 -- -- 84
2020-01-11 05:00:00 -0.2 2 Norte 9 Nordeste 0 -- -- 83
2020-01-11 04:00:00 0.9 4 Nordeste 12 Nordeste 0 -- -- 81
2020-01-11 03:00:00 0.6 8 Nordeste 14 Nordeste 0 -- -- 82
2020-01-11 02:00:00 1.1 9 Nordeste 18 Nordeste 0 -- -- 82
2020-01-11 01:00:00 1.9 14 Nordeste 21 Nordeste 0 -- -- 78
2020-01-11 00:00:00 2.5 6 Nordeste 16 Norte 0 -- -- 77
2020-01-10 23:00:00 3 6 Nordeste 20 Nordeste 0 -- -- 72
2020-01-10 22:00:00 3.1 6 Nordeste 14 Norte 0 -- -- 70
2020-01-10 21:00:00 3.9 7 Nordeste 13 Nordeste 0 -- -- 66
2020-01-10 20:00:00 4.5 2 Nordeste 12 Nordeste 0 -- -- 64
2020-01-10 19:00:00 6.1 8 Nordeste 16 Nordeste 0 -- -- 59
2020-01-10 18:00:00 8.3 8 Nordeste 27 Nordeste 0 -- -- 50
2020-01-10 17:00:00 10.5 14 Nordeste 27 Nordeste 0 -- -- 44
2020-01-10 16:00:00 10.9 14 Nordeste 30 Nordeste 0 -- -- 41
2020-01-10 15:00:00 10.9 13 Nordeste 33 Nordeste 0 -- -- 42
2020-01-10 14:00:00 10.6 12 Nordeste 36 Nordeste 0 -- -- 46
2020-01-10 13:00:00 9.8 17 Nordeste 33 Nordeste 0 -- -- 48
2020-01-10 12:00:00 8.8 17 Nordeste 33 Nordeste 0 -- -- 55
2020-01-10 11:00:00 6.6 7 Nordeste 23 Norte 0 -- -- 70
2020-01-10 10:00:00 3.6 10 Norte 22 Norte 0 -- -- 83
2020-01-10 09:00:00 2.3 9 Norte 24 Norte 0 -- -- 88
2020-01-10 08:00:00 3 10 Norte 19 Norte 0 -- -- 96
2020-01-10 07:00:00 0.2 0 Calma 5 Norte 0 -- -- 99
2020-01-10 06:00:00 1.2 0 Calma 4 Oeste 0 -- -- 98
2020-01-10 05:00:00 1.6 0 Calma 13 Oeste 0 -- -- 95
2020-01-10 04:00:00 3 9 Oeste 13 Oeste 0 -- -- 93
2020-01-10 03:00:00 4.5 7 Noroeste 15 Noroeste 0 -- -- 93
2020-01-10 02:00:00 2.3 3 Nordeste 7 Norte 0 -- -- 96
2020-01-10 01:00:00 2.6 0 Calma 10 Sudoeste 0 -- -- 96
2020-01-10 00:00:00 4 6 Sudoeste 15 Noroeste 0 -- -- 88
2020-01-09 23:00:00 4.7 9 Noroeste 17 Oeste 0 -- -- 87
2020-01-09 22:00:00 4.9 11 Oeste 17 Noroeste 0 -- -- 93
2020-01-09 21:00:00 3.8 7 Oeste 12 Oeste 0 -- -- 88
2020-01-09 20:00:00 4.2 0 Calma 5 Oeste 0 -- -- 84
2020-01-09 19:00:00 5.7 3 Oeste 10 Oeste 0 -- -- 80
2020-01-09 18:00:00 8.5 3 Oeste 17 Noroeste 0 -- -- 73
2020-01-09 17:00:00 10 12 Oeste 18 Oeste 0 -- -- 69
2020-01-09 16:00:00 10.2 7 Oeste 14 Oeste 0 -- -- 68
2020-01-09 15:00:00 9.4 5 Sudoeste 9 Sudoeste 0 -- -- 69
2020-01-09 14:00:00 7.3 5 Sudoeste 10 Sudoeste 0 -- -- 82
2020-01-09 13:00:00 5.6 3 Sudeste 9 Este 0 -- -- 88
2020-01-09 12:00:00 4 6 Sudeste 15 Sudeste 0 -- -- 94
2020-01-09 11:00:00 3 5 Sudeste 14 Sudeste 0 -- -- 99
2020-01-09 10:00:00 1.2 3 Sudeste 6 Este 0 -- -- 98
2020-01-09 09:00:00 0.6 0 Calma 11 Este 0 -- -- 97
2020-01-09 08:00:00 0.9 4 Nordeste 9 Este 0 -- -- 96
2020-01-09 07:00:00 1.6 3 Este 7 Este 0 -- -- 96
2020-01-09 06:00:00 1.9 2 Este 9 Este 0 -- -- 95
2020-01-09 05:00:00 2.4 4 Este 16 Este 0 -- -- 93
2020-01-09 04:00:00 3.1 8 Este 18 Este 0 -- -- 91
2020-01-09 03:00:00 3 6 Este 15 Este 0 -- -- 90
2020-01-09 02:00:00 3.6 8 Este 16 Este 0 -- -- 86
2020-01-09 01:00:00 3.8 8 Este 14 Nordeste 0 -- -- 86
2020-01-09 00:00:00 3.9 6 Este 15 Este 0 -- -- 87
2020-01-08 23:00:00 4.3 8 Este 12 Nordeste 0 -- -- 87
2020-01-08 22:00:00 4.7 4 Este 14 Este 0 -- -- 88
2020-01-08 21:00:00 5.6 7 Este 15 Este 0 -- -- 90
2020-01-08 20:00:00 6.5 6 Este 16 Este 0 -- -- 87
2020-01-08 19:00:00 7.8 5 Este 17 Este 0 -- -- 78
2020-01-08 18:00:00 9.9 5 Este 16 Este 0 -- -- 64
2020-01-08 17:00:00 13.1 8 Sudeste 23 Este 0 -- -- 51
2020-01-08 16:00:00 13.9 9 Sudeste 24 Sur 0 -- -- 46
2020-01-08 15:00:00 14.1 10 Sudeste 21 Sudeste 0 -- -- 48
2020-01-08 14:00:00 13.6 6 Sudeste 19 Sudeste 0 -- -- 45
2020-01-08 13:00:00 12.3 3 Sur 6 Sur 0 -- -- 49
2020-01-08 12:00:00 9.8 3 Sudoeste 6 Sudoeste 0 -- -- 51
2020-01-08 11:00:00 5.8 0 Calma 4 Sudeste 0 -- -- 61
2020-01-08 10:00:00 0.6 0 Calma 5 Nordeste 0 -- -- 82
2020-01-08 09:00:00 -1.1 0 Calma -- -- 0 -- -- 84
2020-01-08 08:00:00 -0.8 0 Calma 3 Noroeste 0 -- -- 82
2020-01-08 07:00:00 -0.1 0 Calma 4 Norte 0 -- -- 77
2020-01-08 06:00:00 1.3 0 Calma 8 Nordeste 0 -- -- 67
2020-01-08 05:00:00 2 5 Norte 10 Norte 0 -- -- 65
2020-01-08 04:00:00 -1 3 Nordeste 4 Norte 0 -- -- 88
2020-01-08 03:00:00 -0.7 2 Este 4 Este 0 -- -- 82
2020-01-08 02:00:00 1.1 0 Calma 9 Norte 0 -- -- 77
2020-01-08 01:00:00 3.1 4 Norte 8 Norte 0 -- -- 61
2020-01-08 00:00:00 1.8 0 Calma 5 Noroeste 0 -- -- 75
2020-01-07 23:00:00 3 0 Calma 8 Norte 0 -- -- 69
2020-01-07 22:00:00 3.2 0 Calma 6 Noroeste 0 -- -- 71
2020-01-07 21:00:00 5.3 0 Calma 8 Noroeste 0 -- -- 64
2020-01-07 20:00:00 7.2 4 Norte 11 Nordeste 0 -- -- 56
2020-01-07 19:00:00 7.7 3 Noroeste 11 Noroeste 0 -- -- 56
2020-01-07 18:00:00 11.4 5 Noroeste 11 Oeste 0 -- -- 48
2020-01-07 17:00:00 13.8 8 Oeste 16 Oeste 0 -- -- 50
2020-01-07 16:00:00 13.9 12 Oeste 18 Oeste 0 -- -- 51
2020-01-07 15:00:00 13 10 Oeste 17 Oeste 0 -- -- 54
2020-01-07 14:00:00 12.7 6 Sudoeste 12 Sudoeste 0 -- -- 55
2020-01-07 13:00:00 13.1 0 Calma 6 Noroeste 0 -- -- 40
2020-01-07 12:00:00 8.5 2 Sur 4 Sur 0 -- -- 58
2020-01-07 11:00:00 4.4 2 Oeste 8 Sudoeste 0 -- -- 72
2020-01-07 10:00:00 0.7 0 Calma 5 Sur 0 -- -- 83
2020-01-07 09:00:00 -1.3 2 Norte 6 Norte 0 -- -- 86
2020-01-07 08:00:00 -1.9 0 Calma 2 Sudeste 0 -- -- 87
2020-01-07 07:00:00 -2.1 2 Oeste 3 Oeste 0 -- -- 87
2020-01-07 06:00:00 -1.3 0 Calma 6 Nordeste 0 -- -- 86
2020-01-07 05:00:00 -1.4 0 Calma 4 Nordeste 0 -- -- 87
2020-01-07 04:00:00 -0.8 0 Calma 4 Nordeste 0 -- -- 87
2020-01-07 03:00:00 -0.4 0 Calma 3 Nordeste 0 -- -- 83
2020-01-07 02:00:00 0.8 3 Norte 8 Norte 0 -- -- 79
2020-01-07 01:00:00 0.7 0 Calma 6 Nordeste 0 -- -- 86
2020-01-07 00:00:00 2.8 0 Calma 3 Sudeste 0 -- -- 80
2020-01-06 23:00:00 4.3 3 Nordeste 8 Norte 0 -- -- 76
2020-01-06 22:00:00 4.5 0 Calma 9 Noroeste 0 -- -- 80
2020-01-06 21:00:00 5.1 0 Calma 6 Noroeste 0 -- -- 77
2020-01-06 20:00:00 5.7 2 Noroeste 6 Oeste 0 -- -- 75
2020-01-06 19:00:00 6.9 0 Calma 4 Sudoeste 0 -- -- 68
2020-01-06 18:00:00 11 0 Calma 8 Sudoeste 0 -- -- 55
2020-01-06 17:00:00 13.1 5 Sudoeste 10 Oeste 0 -- -- 48
2020-01-06 16:00:00 13.8 5 Oeste 11 Oeste 0 -- -- 45
2020-01-06 15:00:00 13.7 5 Sudoeste 10 Oeste 0 -- -- 44
2020-01-06 14:00:00 13.6 4 Oeste 8 Oeste 0 -- -- 42
2020-01-06 13:00:00 11.4 2 Nordeste 9 Nordeste 0 -- -- 57
2020-01-06 12:00:00 9.2 3 Este 8 Este 0 -- -- 62
2020-01-06 11:00:00 6.5 6 Este 12 Este 0 -- -- 67
2020-01-06 10:00:00 2.9 5 Nordeste 12 Este 0 -- -- 75